Time;durP1;ratioP1;P1;durP2;ratioP2;P2;SDS_P1;SDS_P2;PMS_P1;PMS_P2;Temp;Humidity;BMP_temperature;BMP_pressure;BME280_temperature;BME280_humidity;BME280_pressure;Samples;Min_cycle;Max_cycle;Signal;HPM_P1;HPM_P2
2021/03/04 00:00:42;;;;;;;49.88;27.00;;;5.10;99.90;;;4.54;76.49;101726.13;4937340;29;20040;-47
2021/03/04 00:03:08;;;;;;;59.17;32.47;;;5.10;99.90;;;4.52;76.49;101727.94;4936611;29;20052;-47
2021/03/04 00:05:36;;;;;;;52.20;29.33;;;5.10;99.90;;;4.51;76.20;101721.13;4933668;29;20062;-50
2021/03/04 00:08:04;;;;;;;52.40;28.58;;;5.10;99.90;;;4.48;76.62;101716.94;4936995;29;20028;-46
2021/03/04 00:10:30;;;;;;;50.47;27.33;;;5.10;99.90;;;4.51;76.17;101721.13;4933347;29;20047;-45
2021/03/04 00:12:57;;;;;;;44.70;25.38;;;5.10;99.90;;;4.44;76.57;101722.31;4936306;29;20126;-47
2021/03/04 00:15:27;;;;;;;38.38;22.40;;;5.00;99.90;;;4.41;76.44;101720.72;4928179;29;20511;-48
2021/03/04 00:17:53;;;;;;;37.80;22.48;;;5.10;99.90;;;4.42;76.23;101726.72;4952308;29;20146;-48
2021/03/04 00:20:22;;;;;;;40.45;22.88;;;5.00;99.90;;;4.40;76.17;101718.22;4944005;29;20148;-46
2021/03/04 00:22:48;;;;;;;36.65;21.83;;;5.00;99.90;;;4.33;76.44;101718.50;4936665;28;20043;-46
2021/03/04 00:25:15;;;;;;;32.47;20.30;;;4.90;99.90;;;4.32;76.45;101716.84;4945162;28;20090;-46
2021/03/04 00:27:42;;;;;;;37.38;22.33;;;4.90;99.90;;;4.29;76.50;101714.41;4948247;28;20523;-48
2021/03/04 00:30:10;;;;;;;38.90;22.10;;;4.90;99.90;;;4.25;76.87;101710.31;4952715;28;20079;-45
2021/03/04 00:32:36;;;;;;;37.75;23.13;;;4.80;99.90;;;4.21;77.04;101705.41;4968854;28;20635;-46
2021/03/04 00:35:04;;;;;;;40.10;24.48;;;4.80;99.90;;;4.17;77.23;101706.44;4961886;28;20109;-46
2021/03/04 00:37:30;;;;;;;39.60;23.42;;;4.80;99.90;;;4.14;77.46;101707.44;4951150;28;20039;-44
2021/03/04 00:39:56;;;;;;;39.13;23.83;;;4.80;99.90;;;4.08;77.68;101701.72;4948077;28;20031;-46
2021/03/04 00:42:22;;;;;;;41.80;24.58;;;4.70;99.90;;;4.04;77.56;101700.19;4943797;28;20117;-46
2021/03/04 00:44:48;;;;;;;41.63;23.35;;;4.60;99.90;;;3.97;77.84;101694.47;4949668;28;20041;-45
2021/03/04 00:47:14;;;;;;;39.55;23.15;;;4.60;99.90;;;3.95;78.00;101696.31;4948879;28;20031;-48
2021/03/04 00:49:40;;;;;;;41.53;23.50;;;4.50;99.90;;;3.88;78.29;101684.59;4946773;28;20175;-47
2021/03/04 00:52:07;;;;;;;42.25;22.95;;;4.50;99.90;;;3.89;77.96;101678.53;4946194;28;20102;-48
2021/03/04 00:54:33;;;;;;;39.40;22.85;;;4.50;99.90;;;3.98;77.24;101673.78;4959301;28;20035;-45
2021/03/04 00:56:59;;;;;;;42.55;23.25;;;4.60;99.90;;;3.91;77.28;101674.97;4960436;28;20039;-47
2021/03/04 00:59:24;;;;;;;36.08;20.52;;;4.50;99.90;;;3.89;77.30;101673.38;4931206;29;20075;-49
2021/03/04 01:01:50;;;;;;;32.47;20.27;;;4.50;99.90;;;3.87;77.08;101668.28;4935671;29;20035;-49
2021/03/04 01:04:16;;;;;;;34.97;19.27;;;4.50;99.90;;;3.90;76.71;101668.16;4915608;29;20249;-48
2021/03/04 01:06:43;;;;;;;31.27;18.52;;;4.50;99.90;;;3.94;76.40;101663.69;4935716;29;20515;-47
2021/03/04 01:09:09;;;;;;;31.38;18.90;;;4.50;99.90;;;3.95;76.03;101661.03;4932168;29;20523;-46
2021/03/04 01:11:35;;;;;;;32.17;18.77;;;4.50;99.90;;;3.92;76.17;101660.34;4944048;29;20063;-47
2021/03/04 01:14:02;;;;;;;38.72;21.25;;;4.50;99.90;;;3.94;76.29;101666.25;4932372;29;20074;-47
2021/03/04 01:16:28;;;;;;;37.42;20.15;;;4.50;99.90;;;3.95;76.05;101657.63;4930192;29;20047;-47
2021/03/04 01:18:54;;;;;;;34.15;19.73;;;4.60;99.90;;;3.97;75.93;101650.66;4932184;29;20189;-49
2021/03/04 01:21:20;;;;;;;34.25;20.35;;;4.60;99.90;;;3.98;76.16;101648.00;4935224;29;20133;-47
2021/03/04 01:23:46;;;;;;;31.95;19.90;;;4.60;99.90;;;3.93;76.31;101646.53;4931873;29;20036;-47
2021/03/04 01:26:12;;;;;;;37.78;20.30;;;4.60;99.90;;;3.88;76.45;101643.34;4947159;29;20059;-47
2021/03/04 01:28:38;;;;;;;35.83;20.10;;;4.50;99.90;;;3.79;76.90;101649.78;4933877;29;20409;-46
2021/03/04 01:31:04;;;;;;;33.53;18.77;;;4.40;99.90;;;3.73;77.51;101639.78;4939038;28;20032;-48
2021/03/04 01:33:30;;;;;;;43.03;20.55;;;4.30;99.90;;;3.75;77.11;101639.69;4931943;29;20181;-48
2021/03/04 01:35:56;;;;;;;34.08;20.10;;;4.30;99.90;;;3.75;77.04;101639.69;4931996;29;20071;-50
2021/03/04 01:38:22;;;;;;;32.53;19.35;;;4.40;99.90;;;3.73;77.01;101638.94;4931784;29;20097;-49
2021/03/04 01:40:48;;;;;;;36.50;19.58;;;4.30;99.90;;;3.73;77.07;101634.63;4931771;29;20123;-49
2021/03/04 01:43:14;;;;;;;35.20;20.83;;;4.30;99.90;;;3.72;76.91;101626.97;4932734;29;20396;-47
2021/03/04 01:45:40;;;;;;;38.03;20.63;;;4.30;99.90;;;3.71;77.06;101625.28;4935739;29;20040;-49
2021/03/04 01:48:07;;;;;;;35.92;20.05;;;4.30;99.90;;;3.67;77.17;101630.59;4931601;29;20500;-48
2021/03/04 01:50:33;;;;;;;30.25;19.20;;;4.30;99.90;;;3.63;77.23;101633.38;4935663;29;20071;-46
2021/03/04 01:53:00;;;;;;;31.27;19.90;;;4.30;99.90;;;3.59;77.34;101626.69;4931387;29;20059;-45
2021/03/04 01:55:26;;;;;;;35.80;20.35;;;4.20;99.90;;;3.54;77.72;101624.31;4931362;29;20170;-45
2021/03/04 01:57:53;;;;;;;32.47;19.88;;;4.20;99.90;;;3.49;77.64;101615.97;4934612;29;20071;-49
2021/03/04 02:00:21;;;;;;;34.20;20.58;;;4.10;99.90;;;3.44;77.99;101617.09;4935739;28;20036;-50
2021/03/04 02:02:48;;;;;;;35.47;22.23;;;4.10;99.90;;;3.43;77.85;101607.69;4916289;29;20064;-47
2021/03/04 02:05:17;;;;;;;38.72;21.13;;;4.10;99.90;;;3.48;77.47;101598.84;4934485;29;20031;-47
2021/03/04 02:08:08;;;;;;;37.10;21.42;;;4.10;99.90;;;3.48;78.09;101605.72;4931319;29;20058;-47
2021/03/04 02:10:45;;;;;;;34.55;19.77;;;4.10;99.90;;;3.48;77.74;101598.00;4934569;29;20078;-47
2021/03/04 02:13:54;;;;;;;37.60;19.65;;;4.10;99.90;;;3.46;77.76;101585.19;4929711;29;20046;-47
2021/03/04 02:16:44;;;;;;;40.60;19.55;;;4.10;99.90;;;3.50;77.61;101591.88;4907947;29;20099;-49
2021/03/04 02:19:38;;;;;;;31.73;18.08;;;4.10;99.90;;;3.48;77.19;101583.38;4894063;29;20477;-45
2021/03/04 02:22:31;;;;;;;34.28;19.77;;;4.10;99.90;;;3.47;76.85;101581.72;4907136;29;20691;-46
2021/03/04 02:24:59;;;;;;;32.00;18.15;;;4.00;99.90;;;3.46;76.42;101574.06;4908822;29;20048;-48
2021/03/04 02:27:28;;;;;;;35.80;19.30;;;4.00;99.90;;;3.50;76.22;101573.00;4908485;29;20044;-50
2021/03/04 02:30:11;;;;;;;27.15;18.38;;;4.10;99.90;;;3.53;76.40;101567.72;4908613;29;20096;-46
2021/03/04 02:32:46;;;;;;;36.22;19.40;;;4.10;99.90;;;3.51;76.09;101567.78;4908362;29;20044;-44
2021/03/04 02:35:28;;;;;;;29.80;17.75;;;4.10;99.90;;;3.52;76.44;101568.63;4908646;29;20559;-46
2021/03/04 02:38:06;;;;;;;32.88;18.75;;;4.10;99.90;;;3.56;75.89;101564.97;4893572;29;20052;-47
2021/03/04 02:43:13;;;;;;;32.28;19.63;;;4.10;99.90;;;3.50;76.09;101563.53;4705664;23;20099;-49
2021/03/04 02:45:42;;;;;;;31.27;17.17;;;4.10;99.90;;;3.50;76.18;101560.94;4968024;28;20043;-45
2021/03/04 02:48:15;;;;;;;27.98;17.52;;;4.10;99.90;;;3.50;76.29;101555.81;4950787;28;20035;-49
2021/03/04 02:50:43;;;;;;;32.00;17.83;;;4.10;99.90;;;3.49;76.51;101551.56;4952625;28;20447;-48
2021/03/04 02:53:11;;;;;;;30.95;18.15;;;4.10;99.90;;;3.50;76.82;101557.53;4966850;28;20046;-47
2021/03/04 02:55:39;;;;;;;27.42;16.42;;;4.10;99.90;;;3.45;76.75;101547.44;4950672;28;20053;-48
2021/03/04 02:58:09;;;;;;;31.98;17.85;;;4.10;99.90;;;3.48;76.61;101541.31;4968362;28;20469;-49
2021/03/04 03:00:36;;;;;;;28.90;16.85;;;4.10;99.90;;;3.48;76.74;101539.56;4952119;28;20062;-46
2021/03/04 03:03:10;;;;;;;32.65;18.98;;;4.10;99.90;;;3.49;76.34;101540.41;4947780;29;20039;-46
2021/03/04 03:05:40;;;;;;;28.63;17.15;;;4.00;99.90;;;3.47;76.33;101530.19;4950087;29;20089;-46
2021/03/04 03:08:08;;;;;;;38.63;18.88;;;4.10;99.90;;;3.39;76.74;101542.59;4965727;28;20409;-46
2021/03/04 03:10:34;;;;;;;33.72;18.73;;;4.00;99.90;;;3.34;77.00;101537.66;4952008;28;20042;-47
2021/03/04 03:13:02;;;;;;;28.25;16.58;;;4.00;99.90;;;3.27;77.14;101538.03;4947739;28;20071;-45
2021/03/04 03:15:28;;;;;;;30.27;17.95;;;3.90;99.90;;;3.28;77.20;101531.97;4953608;29;20031;-47
2021/03/04 03:17:54;;;;;;;31.00;18.42;;;3.90;99.90;;;3.26;77.03;101534.63;4966833;28;20046;-46
2021/03/04 03:20:23;;;;;;;31.33;17.42;;;3.90;99.90;;;3.30;76.67;101528.44;4972772;28;20535;-46
2021/03/04 03:22:51;;;;;;;28.67;16.77;;;3.90;99.90;;;3.34;76.34;101523.94;4954538;28;20074;-45
2021/03/04 03:25:17;;;;;;;30.88;17.10;;;3.90;99.90;;;3.40;76.14;101523.66;4972571;28;20049;-47
2021/03/04 03:27:45;;;;;;;28.73;16.38;;;3.90;99.90;;;3.38;76.27;101529.78;4971202;28;20089;-46
2021/03/04 03:30:17;;;;;;;31.58;18.75;;;4.00;99.90;;;3.37;76.21;101528.09;4972613;28;20094;-47
2021/03/04 03:33:09;;;;;;;34.10;18.50;;;3.90;99.90;;;3.37;76.54;101522.94;4971639;28;20034;-47
2021/03/04 03:35:37;;;;;;;33.70;18.70;;;3.90;99.90;;;3.34;76.59;101516.19;4972642;28;20093;-48
2021/03/04 03:38:05;;;;;;;29.70;16.60;;;3.90;99.90;;;3.35;76.68;101520.44;4971440;28;20042;-49
2021/03/04 03:40:35;;;;;;;30.92;18.13;;;3.90;99.90;;;3.39;76.22;101516.00;4972399;28;20532;-47
2021/03/04 03:43:09;;;;;;;35.65;19.65;;;3.90;99.90;;;3.37;76.07;101518.63;4971048;28;20116;-46
2021/03/04 03:45:45;;;;;;;32.15;18.25;;;4.00;99.90;;;3.44;75.52;101511.44;4971805;28;20035;-46
2021/03/04 03:48:13;;;;;;;;;;;4.00;99.90;;;3.43;75.64;101518.34;4951131;29;20039;-47
2021/03/04 03:50:47;;;;;;;34.05;17.10;;;4.00;99.90;;;3.43;75.09;101512.34;4953182;29;19922;-45
2021/03/04 03:53:15;;;;;;;30.10;17.08;;;4.00;99.90;;;3.41;74.87;101512.44;4964311;28;20351;-52
2021/03/04 03:55:45;;;;;;;30.80;17.27;;;4.00;99.90;;;3.41;75.15;101511.59;4954881;28;20046;-44
2021/03/04 03:58:12;;;;;;;33.03;19.48;;;4.00;99.90;;;3.44;75.16;101506.31;4970489;28;20122;-50
2021/03/04 04:00:38;;;;;;;31.40;18.10;;;4.00;99.90;;;3.41;75.48;101507.28;4954641;28;20049;-45
2021/03/04 04:03:04;;;;;;;35.17;16.35;;;4.00;99.90;;;3.40;75.69;101503.03;4963296;28;20047;-48
2021/03/04 04:05:31;;;;;;;28.98;16.63;;;4.00;99.90;;;3.38;75.85;101510.00;4942369;29;20134;-45
2021/03/04 04:07:59;;;;;;;28.95;16.85;;;4.00;99.90;;;3.49;75.28;101501.75;4952619;29;20039;-46
2021/03/04 04:10:28;;;;;;;32.17;18.02;;;4.00;99.90;;;3.53;75.11;101495.56;4961681;28;20030;-46
2021/03/04 04:12:56;;;;;;;29.33;17.60;;;4.10;99.90;;;3.48;75.45;101505.25;4970436;28;20046;-45
2021/03/04 04:15:24;;;;;;;27.70;16.67;;;4.10;99.90;;;3.44;75.86;101501.16;4970991;28;20062;-46
2021/03/04 04:17:54;;;;;;;27.88;17.50;;;4.00;99.90;;;3.39;76.30;101506.50;4970841;28;20478;-45
2021/03/04 04:20:21;;;;;;;33.63;18.73;;;4.00;99.90;;;3.39;75.94;101501.38;4971790;28;20038;-48
2021/03/04 04:22:48;;;;;;;26.20;16.65;;;4.00;99.90;;;3.40;75.78;101502.19;4970853;28;20121;-46
2021/03/04 04:25:15;;;;;;;34.20;19.75;;;4.00;99.90;;;3.39;75.92;101501.38;4968822;28;20358;-46
2021/03/04 04:27:42;;;;;;;30.70;18.48;;;4.00;99.90;;;3.49;75.12;101491.47;4970107;28;20503;-46
2021/03/04 04:30:09;;;;;;;34.83;19.63;;;4.00;99.90;;;3.50;74.91;101496.53;4970585;28;20169;-47
2021/03/04 04:32:35;;;;;;;39.38;19.58;;;4.10;99.90;;;3.48;75.17;101489.78;4970348;28;20027;-49
2021/03/04 04:35:03;;;;;;;37.20;18.98;;;4.10;99.90;;;3.52;74.68;101483.59;4971364;28;20062;-45
2021/03/04 04:37:28;;;;;;;36.65;18.70;;;4.10;99.90;;;3.52;74.83;101489.56;4970343;28;20034;-49
2021/03/04 04:39:54;;;;;;;40.90;18.65;;;4.10;99.90;;;3.55;74.50;101483.44;4970771;28;20081;-46
2021/03/04 04:42:23;;;;;;;30.85;17.55;;;4.10;99.90;;;3.70;73.61;101479.28;4969633;28;20553;-50
2021/03/04 04:44:48;;;;;;;33.97;17.05;;;4.20;99.90;;;3.74;73.17;101476.47;4970434;28;20042;-45
2021/03/04 04:47:14;;;;;;;34.45;20.00;;;4.30;99.90;;;3.77;73.04;101466.00;4966376;28;20565;-44
2021/03/04 04:49:40;;;;;;;37.00;18.67;;;4.30;99.90;;;3.77;73.29;101475.50;4970247;28;20447;-47
2021/03/04 04:52:06;;;;;;;35.83;19.27;;;4.30;99.90;;;3.69;73.58;101467.31;4971394;28;20643;-46
2021/03/04 04:54:32;;;;;;;35.83;18.90;;;4.30;99.90;;;3.61;74.09;101465.94;4970243;28;20418;-49
2021/03/04 04:56:58;;;;;;;35.90;18.30;;;4.20;99.90;;;3.60;74.15;101469.41;4969280;28;20034;-46
2021/03/04 04:59:24;;;;;;;29.20;17.13;;;4.20;99.90;;;3.76;73.19;101461.78;4970856;28;20035;-46
2021/03/04 05:01:50;;;;;;;29.42;16.38;;;4.30;99.90;;;3.81;72.83;101461.50;4970364;28;20443;-50
2021/03/04 05:04:15;;;;;;;32.78;18.45;;;4.30;99.90;;;3.78;73.05;101459.13;4969317;28;20230;-47
2021/03/04 05:06:41;;;;;;;32.80;17.73;;;4.40;99.90;;;3.67;73.74;101462.22;4969959;28;20487;-46
2021/03/04 05:09:07;;;;;;;29.63;17.42;;;4.30;99.90;;;3.79;73.87;101471.06;4970798;28;20031;-45
2021/03/04 05:11:34;;;;;;;28.33;16.77;;;4.30;99.90;;;3.77;73.49;101460.84;4968317;28;20026;-46
2021/03/04 05:14:01;;;;;;;32.28;16.20;;;4.30;99.90;;;3.86;72.91;101455.22;4970177;28;20414;-47
2021/03/04 05:16:26;;;;;;;35.05;16.42;;;4.40;99.90;;;3.96;72.45;101461.56;4969958;28;20128;-46
2021/03/04 05:18:52;;;;;;;36.58;16.67;;;4.40;99.90;;;3.98;72.21;101453.75;4969539;28;20071;-47
2021/03/04 05:21:18;;;;;;;31.80;16.52;;;4.50;99.90;;;3.99;71.85;101455.44;4969870;28;20041;-48
2021/03/04 05:23:44;;;;;;;37.55;17.70;;;4.50;99.90;;;4.04;71.73;101453.44;4970456;28;20421;-47
2021/03/04 05:26:10;;;;;;;32.45;16.42;;;4.60;99.90;;;4.06;71.58;101448.22;4952245;28;20066;-45
2021/03/04 05:28:36;;;;;;;29.38;16.50;;;4.60;99.90;;;4.08;71.55;101454.13;4969447;28;20035;-45
2021/03/04 05:31:02;;;;;;;28.60;17.10;;;4.60;99.90;;;4.04;71.45;101450.88;4969478;28;20462;-45
2021/03/04 05:33:27;;;;;;;31.17;17.42;;;4.60;99.90;;;3.90;72.20;101446.41;4959770;28;20027;-44
2021/03/04 05:35:53;;;;;;;37.08;17.60;;;4.50;99.90;;;3.73;73.27;101448.19;4969873;28;20027;-45
2021/03/04 05:38:19;;;;;;;30.42;16.98;;;4.40;99.90;;;3.57;73.90;101451.53;4967939;28;20030;-46
2021/03/04 05:40:45;;;;;;;33.38;17.42;;;4.30;99.90;;;3.49;74.33;101452.81;4970240;28;20038;-44
2021/03/04 05:43:11;;;;;;;32.47;17.10;;;4.10;99.90;;;3.42;74.73;101444.53;4968018;28;20125;-46
2021/03/04 05:45:40;;;;;;;25.02;15.85;;;4.10;99.90;;;3.40;75.03;101441.22;4970406;28;20038;-46
2021/03/04 05:48:09;;;;;;;31.02;17.27;;;4.00;99.90;;;3.40;74.71;101440.38;4951197;28;20035;-46
2021/03/04 05:50:46;;;;;;;31.00;16.83;;;4.00;99.90;;;3.42;74.71;101436.81;4967534;28;20031;-47
2021/03/04 05:53:15;;;;;;;28.77;17.73;;;4.00;99.90;;;3.51;73.91;101438.09;4969036;28;20586;-44
2021/03/04 05:55:45;;;;;;;31.77;17.30;;;4.00;99.90;;;3.59;73.61;101447.13;4969739;28;20093;-45
2021/03/04 05:58:13;;;;;;;32.47;17.77;;;4.10;99.90;;;3.63;73.43;101435.75;4968859;28;20047;-45
2021/03/04 06:00:42;;;;;;;34.78;18.75;;;4.20;99.90;;;3.73;72.98;101441.31;4969080;28;20336;-44
2021/03/04 06:03:08;;;;;;;33.47;18.25;;;4.20;99.90;;;3.88;72.65;101444.81;4968542;28;20372;-50
2021/03/04 06:05:35;;;;;;;35.22;19.40;;;4.40;99.90;;;3.98;71.94;101444.28;4969416;28;20353;-48
2021/03/04 06:08:03;;;;;;;36.40;17.95;;;4.50;99.90;;;4.08;71.34;101439.50;4951613;28;20030;-47
2021/03/04 06:10:31;;;;;;;32.45;17.75;;;4.70;99.90;;;4.18;71.03;101435.53;4969129;28;20141;-47
2021/03/04 06:12:57;;;;;;;33.78;18.83;;;4.70;99.90;;;4.27;70.70;101445.34;4966879;28;20145;-50
2021/03/04 06:15:25;;;;;;;31.33;18.13;;;4.80;99.90;;;4.27;70.67;101437.59;4969440;28;20129;-49
2021/03/04 06:17:59;;;;;;;33.20;17.25;;;4.80;99.90;;;4.26;71.06;101437.69;4968787;28;20039;-47
2021/03/04 06:20:42;;;;;;;31.60;18.17;;;4.90;99.90;;;4.38;70.28;101433.63;4956304;28;20062;-49
2021/03/04 06:23:09;;;;;;;35.80;17.48;;;4.90;99.90;;;4.51;69.99;101437.22;4950302;29;20035;-45
2021/03/04 06:25:35;;;;;;;32.22;18.23;;;5.00;99.90;;;4.59;69.58;101445.41;4964284;28;20146;-45
2021/03/04 06:28:02;;;;;;;33.53;19.20;;;5.10;99.90;;;4.61;70.16;101446.16;4968916;28;20133;-45
2021/03/04 06:30:39;;;;;;;30.60;18.13;;;5.20;99.90;;;4.65;69.90;101445.06;4968348;28;20054;-48
2021/03/04 06:33:11;;;;;;;31.17;17.83;;;5.20;99.90;;;4.73;70.23;101448.03;4957304;28;20106;-47
2021/03/04 06:35:42;;;;;;;33.83;18.60;;;5.40;99.90;;;4.82;70.50;101454.47;4969083;28;20034;-47
2021/03/04 06:38:25;;;;;;;30.20;17.42;;;5.40;99.90;;;4.83;70.63;101451.78;4949955;29;20122;-46
2021/03/04 06:40:54;;;;;;;31.90;17.75;;;5.50;99.90;;;4.93;70.06;101455.53;4950074;29;20538;-44
2021/03/04 06:43:23;;;;;;;37.30;19.55;;;5.50;99.90;;;4.95;69.68;101451.13;4949768;29;20051;-46
2021/03/04 06:45:50;;;;;;;35.28;19.02;;;5.60;99.90;;;5.06;69.16;101457.47;4949722;29;20170;-44
2021/03/04 06:48:22;;;;;;;36.05;20.00;;;5.70;99.90;;;5.15;68.51;101451.78;4934219;29;20065;-44
2021/03/04 06:50:57;;;;;;;35.10;19.75;;;5.80;99.90;;;5.28;68.35;101457.91;4954084;29;20458;-45
2021/03/04 06:53:24;;;;;;;34.50;19.92;;;5.90;99.90;;;5.46;67.65;101454.28;4937769;29;20040;-44
2021/03/04 06:56:00;;;;;;;34.88;19.55;;;6.00;99.90;;;5.61;67.48;101448.25;4953897;29;20407;-45
2021/03/04 06:58:33;;;;;;;;;;;6.20;99.90;;;5.71;67.56;101445.09;4954152;29;20395;-47
2021/03/04 07:01:10;;;;;;;38.75;20.13;;;6.40;99.90;;;5.80;67.38;101447.16;4953815;29;19922;-48
2021/03/04 07:03:51;;;;;;;38.78;20.10;;;6.50;99.90;;;5.93;66.83;101451.56;4954012;29;20126;-46
2021/03/04 07:06:19;;;;;;;34.75;19.05;;;6.60;99.90;;;6.13;65.97;101445.19;4953492;29;20050;-50
2021/03/04 07:08:48;;;;;;;40.30;20.73;;;6.70;99.90;;;6.42;65.15;101445.19;4953408;29;20443;-44
2021/03/04 07:11:22;;;;;;;32.08;18.60;;;6.90;99.90;;;6.53;64.28;101435.00;4936142;29;20376;-46
2021/03/04 07:13:50;;;;;;;35.70;18.77;;;7.10;99.90;;;6.60;63.63;101439.69;4962054;28;20046;-47
2021/03/04 07:16:43;;;;;;;31.67;19.58;;;7.10;99.90;;;6.69;63.23;101443.44;4971388;28;20042;-48
2021/03/04 07:19:12;;;;;;;32.20;18.67;;;7.30;99.90;;;6.91;63.10;101446.38;4954011;28;20038;-44
2021/03/04 07:21:45;;;;;;;37.30;18.38;;;7.50;99.90;;;7.29;63.15;101445.66;4972620;28;20079;-44
2021/03/04 07:24:12;;;;;;;37.80;20.85;;;7.80;99.90;;;7.43;62.69;101437.00;4972598;28;20038;-46
2021/03/04 07:26:38;;;;;;;37.60;21.30;;;8.00;99.90;;;7.62;62.31;101443.44;4972870;28;20564;-43
2021/03/04 07:29:07;;;;;;;35.90;19.15;;;8.10;99.90;;;7.83;61.88;101437.75;4972417;28;20049;-43
2021/03/04 07:31:36;;;;;;;33.47;19.70;;;8.30;99.90;;;7.97;61.77;101440.25;4972463;28;20467;-46
2021/03/04 07:34:03;;;;;;;29.83;17.02;;;8.50;99.90;;;8.02;60.29;101440.78;4972545;28;20035;-46
2021/03/04 07:36:29;;;;;;;32.55;17.73;;;8.70;98.10;;;7.87;60.23;101440.06;4972296;28;20455;-47
2021/03/04 07:39:04;;;;;;;32.78;17.50;;;8.60;96.80;;;7.92;60.07;101432.78;4955226;28;20035;-48
2021/03/04 07:41:40;;;;;;;31.48;17.50;;;8.50;96.50;;;7.91;58.27;101444.09;4972536;28;20035;-49
2021/03/04 07:44:07;;;;;;;33.83;18.30;;;8.50;95.00;;;8.04;59.58;101435.47;4971764;28;20082;-48
2021/03/04 07:46:49;;;;;;;33.92;18.70;;;8.70;95.10;;;8.11;58.90;101436.69;4972096;28;20649;-46
2021/03/04 07:49:15;;;;;;;29.42;16.83;;;8.80;94.20;;;8.25;58.32;101441.78;4972116;28;20035;-46
2021/03/04 07:51:49;;;;;;;30.20;16.77;;;8.90;93.60;;;8.55;57.63;101438.84;4971876;28;20051;-45
2021/03/04 07:54:27;;;;;;;32.65;17.33;;;9.10;93.10;;;8.64;56.16;101435.59;4972061;28;20033;-49
2021/03/04 07:57:03;;;;;;;31.60;17.25;;;9.20;92.20;;;8.78;56.36;101443.25;4971960;28;20047;-44
2021/03/04 07:59:29;;;;;;;;;;;9.30;91.30;;;8.74;55.20;101434.00;4971973;28;20192;-46
2021/03/04 08:02:00;;;;;;;30.50;17.67;;;9.40;90.00;;;8.80;57.19;101425.78;4971950;28;19957;-45
2021/03/04 08:04:28;;;;;;;31.90;17.70;;;9.50;91.00;;;8.97;56.56;101427.19;4971707;28;20306;-45
2021/03/04 08:06:56;;;;;;;30.90;17.33;;;9.50;90.50;;;9.20;55.92;101422.88;4972111;28;20031;-47
2021/03/04 08:09:32;;;;;;;28.35;16.67;;;9.80;90.10;;;9.25;54.91;101428.59;4971977;28;20041;-43
2021/03/04 08:12:17;;;;;;;30.13;17.08;;;9.90;87.20;;;9.28;53.45;101420.56;4971880;28;20035;-48
2021/03/04 08:14:57;;;;;;;30.35;17.50;;;10.00;83.50;;;9.31;53.17;101412.53;4971653;28;20498;-47
2021/03/04 08:17:36;;;;;;;30.55;19.27;;;10.00;82.70;;;9.49;52.92;101418.13;4971777;28;20045;-44
2021/03/04 08:20:20;;;;;;;32.67;18.05;;;10.10;82.30;;;9.70;52.95;101410.50;4971861;28;20566;-45
2021/03/04 08:22:56;;;;;;;31.42;17.55;;;10.20;82.70;;;9.86;53.12;101406.63;4971507;28;20406;-43
2021/03/04 08:25:26;;;;;;;29.10;18.00;;;10.40;81.60;;;10.10;52.80;101411.69;4954128;28;20031;-45
2021/03/04 08:27:56;;;;;;;30.10;16.23;;;10.70;80.20;;;10.44;51.87;101406.50;4971877;28;20038;-45
2021/03/04 08:30:32;;;;;;;30.88;17.98;;;11.00;80.20;;;10.72;51.10;101405.16;4971513;28;20121;-45
2021/03/04 08:33:04;;;;;;;31.25;18.17;;;11.40;77.80;;;10.78;51.66;101402.88;4971506;28;20610;-45
2021/03/04 08:35:33;;;;;;;31.90;17.65;;;11.50;76.70;;;11.05;50.86;101394.59;4971399;28;20038;-46
2021/03/04 08:38:12;;;;;;;29.05;18.20;;;11.70;75.60;;;11.22;49.05;101395.81;4971370;28;20030;-45
2021/03/04 08:40:53;;;;;;;32.10;18.73;;;11.80;75.20;;;11.31;49.34;101397.69;4971342;28;20068;-45
2021/03/04 08:43:23;;;;;;;34.35;18.13;;;11.90;74.50;;;11.77;48.78;101386.88;4969611;28;20447;-45
2021/03/04 08:45:59;;;;;;;34.35;19.00;;;12.20;73.40;;;11.67;47.47;101391.16;4953845;28;20144;-49
2021/03/04 08:48:25;;;;;;;;;;;12.30;71.50;;;11.63;46.25;101387.16;4971516;28;20070;-45
2021/03/04 08:51:06;;;;;;;34.55;18.50;;;12.30;69.40;;;11.72;48.26;101386.41;4970986;28;20358;-44
2021/03/04 08:53:34;;;;;;;36.72;19.77;;;12.40;70.20;;;11.69;48.80;101391.03;4954548;28;20078;-45
2021/03/04 08:56:06;;;;;;;31.85;19.42;;;12.40;69.70;;;11.77;48.11;101388.66;4971152;28;20426;-47
2021/03/04 08:58:42;;;;;;;32.80;18.80;;;12.40;70.00;;;12.23;47.81;101382.91;4970750;28;20049;-45
2021/03/04 09:01:09;;;;;;;39.65;22.38;;;12.70;70.00;;;12.44;47.59;101388.03;4953316;28;20027;-46
2021/03/04 09:03:41;;;;;;;36.97;18.85;;;12.90;69.50;;;12.57;46.65;101388.63;4970871;28;20570;-47
2021/03/04 09:06:13;;;;;;;33.35;19.60;;;13.10;67.90;;;12.98;45.88;101384.13;4953837;28;20487;-45
2021/03/04 09:08:47;;;;;;;29.00;17.45;;;13.50;66.80;;;13.18;45.13;101384.00;4970923;28;20085;-49
2021/03/04 09:11:38;;;;;;;35.00;20.40;;;13.70;64.80;;;13.31;41.61;101373.22;4970038;28;20050;-51
2021/03/04 09:14:09;;;;;;;28.08;15.85;;;13.90;60.60;;;13.34;43.19;101372.97;4970839;28;20058;-47
2021/03/04 09:16:43;;;;;;;26.35;14.43;;;14.00;60.30;;;13.49;41.65;101371.56;4970903;28;20038;-47
2021/03/04 09:19:11;;;;;;;34.10;15.63;;;14.10;59.00;;;13.58;42.72;101365.47;4970643;28;20035;-45
2021/03/04 09:21:37;;;;;;;29.15;17.27;;;14.20;59.70;;;13.66;42.69;101356.91;4970611;28;20422;-47
2021/03/04 09:24:04;;;;;;;30.95;16.40;;;14.20;59.80;;;14.14;41.85;101351.47;4952999;28;20118;-48
2021/03/04 09:26:34;;;;;;;26.15;15.77;;;14.60;59.80;;;14.58;39.36;101349.00;4953042;28;20056;-46
2021/03/04 09:29:05;;;;;;;25.40;13.95;;;15.00;58.00;;;14.85;39.26;101338.44;4937069;28;20031;-44
2021/03/04 09:31:31;;;;;;;23.60;14.00;;;15.30;56.10;;;14.61;38.33;101343.47;4953248;28;20031;-48
2021/03/04 09:34:00;;;;;;;25.13;12.98;;;15.30;53.10;;;14.76;38.14;101341.13;4970601;28;20093;-43
2021/03/04 09:36:26;;;;;;;26.65;13.80;;;15.30;53.80;;;14.87;38.11;101344.34;4970492;28;20026;-48
2021/03/04 09:38:55;;;;;;;29.45;14.43;;;15.50;53.40;;;14.59;37.61;101340.16;4970325;28;20039;-46
2021/03/04 09:41:23;;;;;;;23.50;14.00;;;15.30;53.00;;;14.67;38.57;101328.91;4970205;28;20487;-44
2021/03/04 09:44:05;;;;;;;26.08;14.43;;;15.30;53.50;;;14.72;36.73;101331.91;4969910;28;20046;-45
2021/03/04 09:46:41;;;;;;;22.98;12.98;;;15.30;53.00;;;14.98;37.27;101334.59;4970247;28;20039;-44
2021/03/04 09:49:20;;;;;;;21.45;13.05;;;15.50;52.80;;;14.78;35.22;101326.88;4952535;28;20046;-47
2021/03/04 09:51:46;;;;;;;20.55;12.52;;;15.60;49.10;;;14.73;38.00;101334.38;4936943;28;20131;-45
2021/03/04 09:54:27;;;;;;;19.48;12.13;;;15.40;52.20;;;15.03;36.27;101330.53;4952435;28;20031;-45
2021/03/04 09:57:05;;;;;;;21.60;12.38;;;15.60;51.20;;;15.69;35.71;101329.97;4970108;28;20463;-44
2021/03/04 09:59:31;;;;;;;18.90;11.55;;;16.00;51.90;;;15.90;35.85;101316.47;4969934;28;20031;-44
2021/03/04 10:01:58;;;;;;;21.48;12.30;;;16.40;50.50;;;15.82;35.15;101324.31;4969803;28;20058;-45
2021/03/04 10:04:27;;;;;;;21.05;11.20;;;16.40;48.20;;;15.47;35.43;101320.00;4970013;28;20070;-44
2021/03/04 10:06:53;;;;;;;23.15;11.80;;;16.20;49.30;;;15.76;35.48;101320.50;4969718;28;20078;-44
2021/03/04 10:09:26;;;;;;;23.67;13.07;;;16.30;50.00;;;15.96;34.66;101320.25;4969690;28;20042;-46
2021/03/04 10:11:52;;;;;;;23.75;13.57;;;16.50;49.60;;;16.22;34.89;101332.31;4969931;28;20065;-44
2021/03/04 10:14:18;;;;;;;18.98;10.73;;;16.70;49.30;;;16.02;34.78;101319.63;4969639;28;20494;-45
2021/03/04 10:16:55;;;;;;;17.92;10.50;;;16.70;48.90;;;15.74;32.07;101321.63;4969942;28;20138;-44
2021/03/04 10:19:21;;;;;;;17.63;9.93;;;16.40;48.30;;;16.04;33.93;101318.50;4969745;28;20035;-45
2021/03/04 10:21:47;;;;;;;15.70;8.70;;;16.50;48.30;;;16.14;33.28;101319.16;4970013;28;20038;-49
2021/03/04 10:24:13;;;;;;;16.67;10.13;;;16.60;47.60;;;16.33;33.16;101314.59;4951958;28;20038;-43